createdAt,value
2018-01-19T00:00:08.840Z,98318.27
2018-01-19T00:02:36.933Z,98349.72
2018-01-19T00:05:04.487Z,98332.30
2018-01-19T00:07:32.811Z,98321.56
2018-01-19T00:10:00.254Z,98327.16
2018-01-19T00:12:27.772Z,98331.15
2018-01-19T00:14:55.233Z,98343.69
2018-01-19T00:17:22.760Z,98339.51
2018-01-19T00:19:50.227Z,98337.06
2018-01-19T00:22:17.747Z,98325.83
2018-01-19T00:24:45.830Z,98331.82
2018-01-19T00:27:14.082Z,98326.37
2018-01-19T00:29:41.519Z,98318.10
2018-01-19T00:32:09.001Z,98317.63
2018-01-19T00:34:36.542Z,98320.73
2018-01-19T00:37:03.986Z,98311.89
2018-01-19T00:39:31.436Z,98311.56
2018-01-19T00:41:59.057Z,98304.42
2018-01-19T00:44:26.529Z,98302.68
2018-01-19T00:46:53.974Z,98307.00
2018-01-19T00:49:21.460Z,98311.27
2018-01-19T00:51:48.890Z,98309.59
2018-01-19T00:54:16.362Z,98317.63
2018-01-19T00:56:44.479Z,98321.39
2018-01-19T00:59:11.911Z,98312.97
2018-01-19T01:01:39.390Z,98317.63
2018-01-19T01:04:06.833Z,98322.33
2018-01-19T01:06:34.433Z,98316.69
2018-01-19T01:09:01.883Z,98325.52
2018-01-19T01:11:29.413Z,98348.83
2018-01-19T01:13:56.926Z,98369.43
2018-01-19T01:16:24.379Z,98395.22
2018-01-19T01:18:51.827Z,98398.31
2018-01-19T01:21:19.633Z,98411.00
2018-01-19T01:23:47.078Z,98397.09
2018-01-19T01:26:14.774Z,98400.80
2018-01-19T01:28:42.228Z,98386.89
2018-01-19T01:31:09.683Z,98375.09
2018-01-19T01:33:37.145Z,98370.91
2018-01-19T01:36:04.591Z,98373.02
2018-01-19T01:38:32.616Z,98375.94
2018-01-19T01:41:00.154Z,98389.56
2018-01-19T01:43:27.586Z,98386.13
2018-01-19T01:45:55.037Z,98376.57
2018-01-19T01:48:22.476Z,98373.14
2018-01-19T01:50:49.925Z,98382.87
2018-01-19T01:53:17.428Z,98402.48
2018-01-19T01:55:44.886Z,98431.15
2018-01-19T01:58:12.325Z,98421.81
2018-01-19T02:00:39.782Z,98410.31
2018-01-19T02:03:07.218Z,98401.05
2018-01-19T02:05:34.659Z,98388.75
2018-01-19T02:08:02.120Z,98369.34
2018-01-19T02:10:29.582Z,98368.16
2018-01-19T02:12:57.014Z,98381.34
2018-01-19T02:15:24.499Z,98386.41
2018-01-19T02:17:51.946Z,98370.39
2018-01-19T02:20:19.602Z,98403.28
2018-01-19T02:22:47.058Z,98410.39
2018-01-19T02:25:14.508Z,98414.20
2018-01-19T02:27:42.064Z,98412.16
2018-01-19T02:30:09.580Z,98401.56
2018-01-19T02:32:37.015Z,98392.64
2018-01-19T02:35:04.448Z,98378.73
2018-01-19T02:37:31.935Z,98380.76
2018-01-19T02:39:59.393Z,98360.03
2018-01-19T02:42:27.054Z,98355.05
2018-01-19T02:44:54.559Z,98348.66
2018-01-19T02:47:21.995Z,98348.70
2018-01-19T02:49:49.554Z,98348.28
2018-01-19T02:52:17.126Z,98324.52
2018-01-19T02:54:45.688Z,98366.84
2018-01-19T02:57:13.154Z,98364.69
2018-01-19T02:59:40.684Z,98351.58
2018-01-19T03:02:08.120Z,98360.84
2018-01-19T03:04:35.556Z,98372.30
2018-01-19T03:07:03.015Z,98384.10
2018-01-19T03:09:30.462Z,98391.80
2018-01-19T03:11:57.906Z,98401.94
2018-01-19T03:14:25.354Z,98403.20
2018-01-19T03:16:52.786Z,98377.33
2018-01-19T03:19:20.228Z,98374.80
2018-01-19T03:21:47.702Z,98378.61
2018-01-19T03:24:15.142Z,98373.95
2018-01-19T03:26:42.602Z,98385.79
2018-01-19T03:29:10.114Z,98371.33
2018-01-19T03:31:37.562Z,98389.84
2018-01-19T03:34:05.177Z,98390.70
2018-01-19T03:36:32.618Z,98415.61
2018-01-19T03:39:00.078Z,98399.12
2018-01-19T03:41:27.561Z,98405.50
2018-01-19T03:43:55.007Z,98392.27
2018-01-19T03:46:22.467Z,98391.03
2018-01-19T03:48:50.012Z,98394.09
2018-01-19T03:51:17.585Z,98396.23
2018-01-19T03:53:45.058Z,98408.05
2018-01-19T03:56:12.570Z,98412.23
2018-01-19T03:58:40.062Z,98402.97
2018-01-19T04:01:07.514Z,98410.16
2018-01-19T04:03:34.990Z,98401.44
2018-01-19T04:06:02.426Z,98398.02
2018-01-19T04:08:29.873Z,98399.70
2018-01-19T04:10:57.407Z,98390.40
2018-01-19T04:13:24.868Z,98398.40
2018-01-19T04:15:52.309Z,98404.78
2018-01-19T04:18:19.781Z,98392.52
2018-01-19T04:20:47.248Z,98386.13
2018-01-19T04:23:14.692Z,98375.18
2018-01-19T04:25:42.136Z,98395.90
2018-01-19T04:28:09.590Z,98380.17
2018-01-19T04:30:37.047Z,98385.67
2018-01-19T04:33:04.528Z,98384.44
2018-01-19T04:35:31.980Z,98390.23
2018-01-19T04:37:59.466Z,98384.31
2018-01-19T04:40:26.928Z,98371.67
2018-01-19T04:42:54.378Z,98370.83
2018-01-19T04:45:21.833Z,98377.25
2018-01-19T04:47:49.291Z,98392.47
2018-01-19T04:50:16.973Z,98394.29
2018-01-19T04:52:44.412Z,98407.44
2018-01-19T04:55:11.888Z,98407.44
2018-01-19T04:57:39.333Z,98388.98
2018-01-19T05:00:06.778Z,98379.31
2018-01-19T05:02:35.182Z,98384.87
2018-01-19T05:05:02.623Z,98396.75
2018-01-19T05:07:30.059Z,98406.83
2018-01-19T05:09:57.500Z,98411.40
2018-01-19T05:12:24.990Z,98416.97
2018-01-19T05:14:52.425Z,98413.63
2018-01-19T05:17:19.947Z,98412.81
2018-01-19T05:19:47.387Z,98414.86
2018-01-19T05:22:14.936Z,98419.47
2018-01-19T05:24:42.394Z,98428.34
2018-01-19T05:27:09.839Z,98439.37
2018-01-19T05:29:37.293Z,98447.02
2018-01-19T05:32:04.768Z,98435.18
2018-01-19T05:34:32.199Z,98436.77
2018-01-19T05:36:59.656Z,98445.64
2018-01-19T05:39:27.113Z,98467.59
2018-01-19T05:41:54.544Z,98467.55
2018-01-19T05:44:21.981Z,98483.97
2018-01-19T05:46:49.546Z,98489.57
2018-01-19T05:49:16.994Z,98493.38
2018-01-19T05:51:44.438Z,98493.48
2018-01-19T05:54:11.882Z,98495.13
2018-01-19T05:56:39.319Z,98500.80
2018-01-19T05:59:06.802Z,98501.22
2018-01-19T06:01:34.257Z,98495.75
2018-01-19T06:04:01.733Z,98497.84
2018-01-19T06:06:29.420Z,98489.02
2018-01-19T06:08:56.866Z,98481.12
2018-01-19T06:11:24.307Z,98475.63
2018-01-19T06:13:51.764Z,98486.13
2018-01-19T06:16:19.219Z,98484.11
2018-01-19T06:18:47.267Z,98475.69
2018-01-19T06:21:14.833Z,98482.42
2018-01-19T06:23:42.294Z,98488.91
2018-01-19T06:26:09.740Z,98493.52
2018-01-19T06:28:37.343Z,98496.98
2018-01-19T06:31:04.807Z,98510.58
2018-01-19T06:33:32.244Z,98509.77
2018-01-19T06:35:59.690Z,98515.77
2018-01-19T06:38:27.156Z,98517.48
2018-01-19T06:40:54.614Z,98502.77
2018-01-19T06:43:22.063Z,98512.52
2018-01-19T06:45:49.531Z,98516.71
2018-01-19T06:48:17.063Z,98512.00
2018-01-19T06:50:44.546Z,98512.04
2018-01-19T06:53:12.052Z,98523.92
2018-01-19T06:55:39.508Z,98517.64
2018-01-19T06:58:06.965Z,98511.75
2018-01-19T07:00:34.455Z,98518.86
2018-01-19T07:03:01.920Z,98523.79
2018-01-19T07:05:29.372Z,98522.20
2018-01-19T07:07:56.824Z,98519.69
2018-01-19T07:10:24.286Z,98520.91
2018-01-19T07:12:51.775Z,98524.31
2018-01-19T07:15:19.419Z,98530.59
2018-01-19T07:17:52.675Z,98536.58
2018-01-19T07:20:20.117Z,98545.81
2018-01-19T07:22:47.591Z,98552.62
2018-01-19T07:25:15.032Z,98555.98
2018-01-19T07:27:42.495Z,98560.59
2018-01-19T07:30:09.959Z,98560.58
2018-01-19T07:32:37.686Z,98567.41
2018-01-19T07:35:05.141Z,98570.31
2018-01-19T07:37:32.597Z,98580.85
2018-01-19T07:40:00.067Z,98588.06
2018-01-19T07:42:27.726Z,98588.89
2018-01-19T07:44:55.210Z,98593.66
2018-01-19T07:47:22.717Z,98594.96
2018-01-19T07:49:50.142Z,98605.81
2018-01-19T07:52:17.657Z,98603.33
2018-01-19T07:54:45.321Z,98613.49
2018-01-19T07:57:12.774Z,98618.56
2018-01-19T07:59:40.262Z,98616.88
2018-01-19T08:02:07.729Z,98635.91
2018-01-19T08:04:35.175Z,98641.79
2018-01-19T08:07:02.611Z,98642.59
2018-01-19T08:09:30.063Z,98646.02
2018-01-19T08:11:57.546Z,98652.39
2018-01-19T08:14:24.983Z,98662.16
2018-01-19T08:16:52.446Z,98665.58
2018-01-19T08:19:19.880Z,98676.11
2018-01-19T08:21:47.320Z,98679.01
2018-01-19T08:24:14.818Z,98684.20
2018-01-19T08:26:42.270Z,98669.13
2018-01-19T08:29:09.719Z,98686.09
2018-01-19T08:31:37.184Z,98678.44
2018-01-19T08:34:04.648Z,98670.52
2018-01-19T08:36:32.337Z,98668.80
2018-01-19T08:38:59.779Z,98665.03
2018-01-19T08:41:27.265Z,98671.28
2018-01-19T08:43:54.728Z,98665.81
2018-01-19T08:46:22.175Z,98670.06
2018-01-19T08:48:49.635Z,98685.27
2018-01-19T08:51:17.917Z,98692.06
2018-01-19T08:53:45.358Z,98700.48
2018-01-19T08:56:12.813Z,98693.26
2018-01-19T08:58:40.266Z,98691.98
2018-01-19T09:01:07.728Z,98690.65
2018-01-19T09:03:35.211Z,98687.23
2018-01-19T09:06:02.635Z,98684.28
2018-01-19T09:08:30.075Z,98671.27
2018-01-19T09:10:57.521Z,98669.19
2018-01-19T09:13:24.980Z,98679.27
2018-01-19T09:15:52.438Z,98686.38
2018-01-19T09:18:19.913Z,98685.88
2018-01-19T09:20:47.352Z,98674.40
2018-01-19T09:23:14.836Z,98679.38
2018-01-19T09:25:42.592Z,98678.95
2018-01-19T09:28:10.149Z,98696.65
2018-01-19T09:30:37.890Z,98693.25
2018-01-19T09:33:05.383Z,98697.80
2018-01-19T09:35:32.838Z,98704.44
2018-01-19T09:38:00.282Z,98713.64
2018-01-19T09:40:27.739Z,98738.12
2018-01-19T09:42:55.203Z,98724.14
2018-01-19T09:45:22.632Z,98732.00
2018-01-19T09:47:50.074Z,98737.39
2018-01-19T09:50:17.632Z,98742.84
2018-01-19T09:52:45.062Z,98747.94
2018-01-19T09:55:12.520Z,98738.06
2018-01-19T09:57:39.976Z,98741.03
2018-01-19T10:00:07.447Z,98733.74
2018-01-19T10:02:34.925Z,98727.75
2018-01-19T10:05:02.398Z,98734.43
2018-01-19T10:07:29.851Z,98763.64
2018-01-19T10:09:57.305Z,98732.67
2018-01-19T10:12:24.914Z,98725.27
2018-01-19T10:14:52.358Z,98720.95
2018-01-19T10:17:19.810Z,98726.89
2018-01-19T10:19:47.393Z,98749.23
2018-01-19T10:22:15.106Z,98721.12
2018-01-19T10:24:42.584Z,98740.03
2018-01-19T10:27:10.031Z,98731.94
2018-01-19T10:29:37.489Z,98737.95
2018-01-19T10:32:04.929Z,98729.78
2018-01-19T10:34:32.727Z,98741.27
2018-01-19T10:37:00.194Z,98738.34
2018-01-19T10:39:27.653Z,98776.13
2018-01-19T10:41:55.118Z,98748.77
2018-01-19T10:44:22.564Z,98744.50
2018-01-19T10:46:50.008Z,98729.55
2018-01-19T10:49:17.499Z,98727.95
2018-01-19T10:51:44.974Z,98714.28
2018-01-19T10:54:12.422Z,98719.38
2018-01-19T10:56:39.882Z,98754.31
2018-01-19T10:59:07.327Z,98768.73
2018-01-19T11:01:34.793Z,98733.29
2018-01-19T11:04:02.247Z,98742.56
2018-01-19T11:06:29.782Z,98732.39
2018-01-19T11:08:57.233Z,98729.36
2018-01-19T11:11:24.726Z,98723.42
2018-01-19T11:13:52.183Z,98737.27
2018-01-19T11:16:19.666Z,98707.47
2018-01-19T11:18:47.230Z,98712.23
2018-01-19T11:21:14.716Z,98692.98
2018-01-19T11:23:42.187Z,98693.54
2018-01-19T11:26:09.632Z,98676.57
2018-01-19T11:28:37.126Z,98675.27
2018-01-19T11:31:04.588Z,98729.00
2018-01-19T11:33:32.041Z,98694.83
2018-01-19T11:35:59.569Z,98722.86
2018-01-19T11:38:27.070Z,98678.23
2018-01-19T11:40:54.561Z,98684.08
2018-01-19T11:43:22.014Z,98719.61
2018-01-19T11:45:49.502Z,98704.34
2018-01-19T11:48:16.960Z,98717.77
2018-01-19T11:50:44.407Z,98696.10
2018-01-19T11:53:11.882Z,98734.78
2018-01-19T11:55:39.835Z,98698.69
2018-01-19T11:58:07.276Z,98694.88
2018-01-19T12:00:34.772Z,98679.93
2018-01-19T12:03:02.235Z,98696.05
2018-01-19T12:05:29.675Z,98688.90
2018-01-19T12:07:57.149Z,98668.91
2018-01-19T12:10:24.602Z,98658.83
2018-01-19T12:12:52.040Z,98664.39
2018-01-19T12:15:19.562Z,98702.04
2018-01-19T12:17:47.014Z,98666.42
2018-01-19T12:20:14.491Z,98674.37
2018-01-19T12:22:41.974Z,98691.34
2018-01-19T12:25:09.406Z,98685.25
2018-01-19T12:27:36.874Z,98687.85
2018-01-19T12:30:04.450Z,98722.30
2018-01-19T12:32:32.444Z,98685.91
2018-01-19T12:35:00.368Z,98665.75
2018-01-19T12:37:27.884Z,98665.80
2018-01-19T12:39:55.345Z,98690.44
2018-01-19T12:42:22.832Z,98696.80
2018-01-19T12:44:50.547Z,98688.70
2018-01-19T12:47:18.323Z,98683.37
2018-01-19T12:49:45.826Z,98704.58
2018-01-19T12:52:13.277Z,98688.66
2018-01-19T12:54:40.746Z,98697.13
2018-01-19T12:57:08.211Z,98715.37
2018-01-19T12:59:35.664Z,98735.13
2018-01-19T13:02:03.114Z,98744.54
2018-01-19T13:04:30.678Z,98715.27
2018-01-19T13:06:58.135Z,98721.59
2018-01-19T13:09:25.623Z,98733.42
2018-01-19T13:11:53.083Z,98750.09
2018-01-19T13:14:20.548Z,98760.61
2018-01-19T13:16:48.005Z,98815.89
2018-01-19T13:19:15.447Z,98782.40
2018-01-19T13:21:42.929Z,98793.84
2018-01-19T13:24:10.422Z,98778.38
2018-01-19T13:26:38.090Z,98801.27
2018-01-19T13:29:05.553Z,98788.84
2018-01-19T13:31:33.014Z,98812.64
2018-01-19T13:34:00.531Z,98793.39
2018-01-19T13:36:28.279Z,98816.25
2018-01-19T13:38:56.469Z,98827.23
2018-01-19T13:41:23.933Z,98819.22
2018-01-19T13:43:51.399Z,98807.31
2018-01-19T13:46:18.907Z,98800.38
2018-01-19T13:48:46.407Z,98793.87
2018-01-19T13:51:14.236Z,98799.92
2018-01-19T13:53:41.717Z,98821.02
2018-01-19T13:56:09.334Z,98810.13
2018-01-19T13:58:36.955Z,98806.52
2018-01-19T14:01:04.620Z,98837.36
2018-01-19T14:03:32.186Z,98832.54
2018-01-19T14:05:59.654Z,98829.06
2018-01-19T14:08:27.493Z,98833.00
2018-01-19T14:10:54.971Z,98843.37
2018-01-19T14:13:22.431Z,98844.80
2018-01-19T14:15:49.898Z,98825.80
2018-01-19T14:18:17.382Z,98833.58
2018-01-19T14:20:44.988Z,98837.32
2018-01-19T14:23:12.498Z,98848.93
2018-01-19T14:25:39.999Z,98855.20
2018-01-19T14:28:07.465Z,98866.89
2018-01-19T14:30:34.946Z,98861.22
2018-01-19T14:33:02.438Z,98855.66
2018-01-19T14:35:29.946Z,98852.14
2018-01-19T14:37:57.420Z,98863.94
2018-01-19T14:40:24.895Z,98850.61
2018-01-19T14:42:52.482Z,98846.16
2018-01-19T14:45:22.520Z,98841.57
2018-01-19T14:47:50.110Z,98846.16
2018-01-19T14:50:17.891Z,98834.56
2018-01-19T14:52:45.373Z,98842.59
2018-01-19T14:55:12.838Z,98832.20
2018-01-19T14:57:40.314Z,98837.45
2018-01-19T15:00:07.780Z,98833.63
2018-01-19T15:02:35.713Z,98838.67
2018-01-19T15:05:03.260Z,98835.90
2018-01-19T15:07:30.722Z,98837.26
2018-01-19T15:09:58.184Z,98853.77
2018-01-19T15:12:25.931Z,98845.28
2018-01-19T15:14:53.416Z,98838.30
2018-01-19T15:17:20.916Z,98847.20
2018-01-19T15:19:48.390Z,98848.30
2018-01-19T15:22:16.055Z,98857.02
2018-01-19T15:24:43.513Z,98885.50
2018-01-19T15:27:10.974Z,98912.31
2018-01-19T15:29:39.795Z,98915.83
2018-01-19T15:32:07.263Z,98918.10
2018-01-19T15:34:37.384Z,98926.19
2018-01-19T15:37:04.898Z,98933.00
2018-01-19T15:39:32.362Z,98944.02
2018-01-19T15:41:59.836Z,98946.59
2018-01-19T15:44:27.329Z,98936.55
2018-01-19T15:46:54.827Z,98950.91
2018-01-19T15:49:22.311Z,98944.63
2018-01-19T15:51:49.784Z,98948.03
2018-01-19T15:54:17.242Z,98945.03
2018-01-19T15:56:44.732Z,98929.84
2018-01-19T15:59:12.218Z,98934.15
2018-01-19T16:01:39.702Z,98939.69
2018-01-19T16:04:07.166Z,98940.10
2018-01-19T16:06:34.664Z,98945.16
2018-01-19T16:09:02.151Z,98950.17
2018-01-19T16:11:29.646Z,98951.48
2018-01-19T16:13:57.126Z,98944.73
2018-01-19T16:16:24.630Z,98954.41
2018-01-19T16:18:52.095Z,98950.19
2018-01-19T16:21:19.578Z,98950.17
2018-01-19T16:23:47.050Z,98942.16
2018-01-19T16:26:14.545Z,98936.25
2018-01-19T16:28:42.031Z,98949.79
2018-01-19T16:31:09.491Z,98945.17
2018-01-19T16:33:36.967Z,98950.16
2018-01-19T16:36:04.465Z,98954.45
2018-01-19T16:38:31.950Z,98956.56
2018-01-19T16:40:59.437Z,98956.97
2018-01-19T16:43:26.922Z,98956.97
2018-01-19T16:45:54.404Z,98952.28
2018-01-19T16:48:21.905Z,98952.29
2018-01-19T16:50:49.395Z,98969.61
2018-01-19T16:53:16.880Z,98966.25
2018-01-19T16:55:44.387Z,98967.95
2018-01-19T16:58:11.871Z,98982.30
2018-01-19T17:00:39.351Z,98978.91
2018-01-19T17:03:06.807Z,98981.45
2018-01-19T17:05:34.428Z,98983.98
2018-01-19T17:08:01.928Z,98989.47
2018-01-19T17:10:29.387Z,98989.46
2018-01-19T17:12:56.875Z,98994.54
2018-01-19T17:15:24.357Z,99000.88
2018-01-19T17:17:51.850Z,98999.64
2018-01-19T17:20:20.043Z,98998.78
2018-01-19T17:22:47.517Z,99002.16
2018-01-19T17:25:15.042Z,99011.89
2018-01-19T17:27:42.535Z,99007.66
2018-01-19T17:30:09.994Z,99012.72
2018-01-19T17:32:37.453Z,99021.17
2018-01-19T17:35:04.913Z,99038.50
2018-01-19T17:37:32.384Z,99037.23
2018-01-19T17:39:59.853Z,99053.70
2018-01-19T17:42:27.343Z,99053.28
2018-01-19T17:44:54.823Z,99052.01
2018-01-19T17:47:22.302Z,99059.62
2018-01-19T17:49:49.761Z,99074.81
2018-01-19T17:52:17.225Z,99065.94
2018-01-19T17:54:44.672Z,99064.23
2018-01-19T17:57:12.156Z,99074.38
2018-01-19T17:59:39.614Z,99073.11
2018-01-19T18:02:07.051Z,99083.66
2018-01-19T18:04:34.558Z,99088.31
2018-01-19T18:07:01.991Z,99093.77
2018-01-19T18:09:29.441Z,99090.84
2018-01-19T18:11:56.902Z,99108.14
2018-01-19T18:14:24.336Z,99094.63
2018-01-19T18:16:51.847Z,99101.84
2018-01-19T18:19:19.290Z,99097.18
2018-01-19T18:21:46.791Z,99090.42
2018-01-19T18:24:14.240Z,99090.44
2018-01-19T18:26:41.695Z,99087.90
2018-01-19T18:29:09.138Z,99081.56
2018-01-19T18:31:36.616Z,99089.57
2018-01-19T18:36:37.846Z,99103.11
2018-01-19T18:39:05.310Z,99098.88
2018-01-19T18:41:32.754Z,99089.59
2018-01-19T18:44:00.205Z,99091.25
2018-01-19T18:46:27.670Z,99080.28
2018-01-19T18:48:55.118Z,99089.55
2018-01-19T18:51:22.579Z,99087.03
2018-01-19T18:53:50.022Z,99087.03
2018-01-19T18:56:17.499Z,99079.84
2018-01-19T18:58:44.958Z,99076.06
2018-01-19T19:01:12.411Z,99089.56
2018-01-19T19:03:39.914Z,99094.20
2018-01-19T19:06:07.366Z,99086.61
2018-01-19T19:08:34.808Z,99098.45
2018-01-19T19:11:02.278Z,99083.24
2018-01-19T19:13:29.735Z,99092.94
2018-01-19T19:15:57.216Z,99094.64
2018-01-19T19:18:24.683Z,99105.62
2018-01-19T19:20:52.128Z,99097.99
2018-01-19T19:23:19.611Z,99106.02
2018-01-19T19:25:47.077Z,99105.61
2018-01-19T19:28:14.562Z,99106.44
2018-01-19T19:30:42.013Z,99121.23
2018-01-19T19:33:09.551Z,99118.71
2018-01-19T19:35:37.015Z,99135.17
2018-01-19T19:38:04.474Z,99121.26
2018-01-19T19:40:31.990Z,99126.36
2018-01-19T19:42:59.463Z,99135.62
2018-01-19T19:45:26.922Z,99119.19
2018-01-19T19:47:54.392Z,99125.94
2018-01-19T19:50:21.883Z,99124.22
2018-01-19T19:52:49.560Z,99128.89
2018-01-19T19:55:17.349Z,99118.73
2018-01-19T19:57:44.945Z,99121.27
2018-01-19T20:00:12.695Z,99119.17
2018-01-19T20:02:40.246Z,99125.08
2018-01-19T20:05:07.720Z,99120.42
2018-01-19T20:07:35.311Z,99118.73
2018-01-19T20:10:02.770Z,99115.77
2018-01-19T20:12:30.234Z,99129.28
2018-01-19T20:14:57.695Z,99120.40
2018-01-19T20:17:25.166Z,99122.52
2018-01-19T20:19:52.736Z,99113.25
2018-01-19T20:22:20.222Z,99129.70
2018-01-19T20:24:47.902Z,99123.80
2018-01-19T20:27:15.398Z,99117.05
2018-01-19T20:29:44.189Z,99120.41
2018-01-19T20:32:11.662Z,99133.48
2018-01-19T20:34:39.199Z,99143.19
2018-01-19T20:37:06.955Z,99137.69
2018-01-19T20:39:34.446Z,99137.27
2018-01-19T20:42:02.901Z,99135.99
2018-01-19T20:44:30.480Z,99143.59
2018-01-19T20:46:57.965Z,99143.58
2018-01-19T20:49:25.670Z,99144.00
2018-01-19T20:51:53.157Z,99154.98
2018-01-19T20:54:20.625Z,99149.47
2018-01-19T20:56:48.430Z,99154.09
2018-01-19T20:59:17.502Z,99167.60
2018-01-19T21:01:44.992Z,99165.90
2018-01-19T21:04:12.685Z,99165.05
2018-01-19T21:06:40.449Z,99169.64
2018-01-19T21:09:07.986Z,99170.91
2018-01-19T21:11:35.472Z,99179.73
2018-01-19T21:14:03.000Z,99183.94
2018-01-19T21:16:30.476Z,99183.09
2018-01-19T21:18:57.974Z,99181.34
2018-01-19T21:21:26.780Z,99184.74
2018-01-19T21:23:54.440Z,99194.88
2018-01-19T21:26:22.073Z,99191.89
2018-01-19T21:28:49.712Z,99178.46
2018-01-19T21:31:18.727Z,99179.69
2018-01-19T21:33:51.672Z,99177.66
2018-01-19T21:36:19.226Z,99174.22
2018-01-19T21:38:48.122Z,99181.05
2018-01-19T21:41:15.727Z,99183.17
2018-01-19T21:43:43.255Z,99183.58
2018-01-19T21:46:10.730Z,99186.52
2018-01-19T21:48:38.212Z,99179.34
2018-01-19T21:51:05.738Z,99181.85
2018-01-19T21:53:33.276Z,99173.84
2018-01-19T21:56:00.815Z,99177.69
2018-01-19T21:58:28.278Z,99173.47
2018-01-19T22:00:55.759Z,99170.52
2018-01-19T22:03:23.256Z,99169.72
2018-01-19T22:05:50.765Z,99176.89
2018-01-19T22:08:18.235Z,99166.77
2018-01-19T22:10:45.695Z,99168.43
2018-01-19T22:13:13.147Z,99176.45
2018-01-19T22:15:40.613Z,99169.29
2018-01-19T22:18:08.073Z,99177.73
2018-01-19T22:20:35.551Z,99176.44
2018-01-19T22:23:03.122Z,99181.48
2018-01-19T22:25:30.580Z,99181.48
2018-01-19T22:28:02.235Z,99184.86
2018-01-19T22:30:29.781Z,99194.54
2018-01-19T22:32:58.942Z,99185.27
2018-01-19T22:35:26.535Z,99199.16
2018-01-19T22:50:50.166Z,99204.45
2018-01-19T22:53:18.425Z,99206.70
2018-01-19T22:55:45.883Z,99204.16
2018-01-19T22:58:14.221Z,99210.90
2018-01-19T23:00:45.028Z,99194.80
2018-01-19T23:03:13.230Z,99201.05
2018-01-19T23:05:43.400Z,99198.98
2018-01-19T23:08:11.820Z,99214.48
2018-01-19T23:10:39.390Z,99214.86
2018-01-19T23:13:06.852Z,99215.67
2018-01-19T23:15:34.313Z,99214.93
2018-01-19T23:18:06.573Z,99209.91
2018-01-19T23:20:34.131Z,99211.20
2018-01-19T23:23:01.600Z,99206.59
2018-01-19T23:25:29.082Z,99204.42
2018-01-19T23:27:56.542Z,99212.83
2018-01-19T23:30:24.036Z,99209.94
2018-01-19T23:32:51.543Z,99204.02
2018-01-19T23:35:19.052Z,99203.61
2018-01-19T23:37:46.612Z,99198.20
2018-01-19T23:40:14.080Z,99193.94
2018-01-19T23:42:41.550Z,99198.47
2018-01-19T23:45:09.006Z,99196.36
2018-01-19T23:47:36.495Z,99202.22
2018-01-19T23:50:03.992Z,99200.17
2018-01-19T23:52:31.531Z,99193.84
2018-01-19T23:54:58.998Z,99189.57
2018-01-19T23:57:26.537Z,99195.10
2018-01-19T23:59:54.088Z,99187.98
